sensor_id;sensor_type;location;lat;lon;timestamp;P1;durP1;ratioP1;P2;durP2;ratioP2
78365;SDS011;67641;59.864;30.464;2024-03-02T00:00:27;4.97;;;0.82;;
78365;SDS011;67641;59.864;30.464;2024-03-02T00:02:54;1.80;;;0.82;;
78365;SDS011;67641;59.864;30.464;2024-03-02T00:05:21;2.33;;;0.98;;
78365;SDS011;67641;59.864;30.464;2024-03-02T00:07:52;2.20;;;0.90;;
78365;SDS011;67641;59.864;30.464;2024-03-02T00:10:25;2.53;;;1.00;;
78365;SDS011;67641;59.864;30.464;2024-03-02T00:12:57;4.95;;;0.90;;
78365;SDS011;67641;59.864;30.464;2024-03-02T00:17:59;2.38;;;1.10;;
78365;SDS011;67641;59.864;30.464;2024-03-02T00:20:25;3.38;;;1.00;;
78365;SDS011;67641;59.864;30.464;2024-03-02T00:23:01;2.25;;;1.00;;
78365;SDS011;67641;59.864;30.464;2024-03-02T00:28:17;4.60;;;1.15;;
78365;SDS011;67641;59.864;30.464;2024-03-02T00:36:10;2.97;;;1.17;;
78365;SDS011;67641;59.864;30.464;2024-03-02T00:38:44;2.30;;;0.95;;
78365;SDS011;67641;59.864;30.464;2024-03-02T00:41:21;4.22;;;1.10;;
78365;SDS011;67641;59.864;30.464;2024-03-02T00:46:29;4.72;;;1.17;;
78365;SDS011;67641;59.864;30.464;2024-03-02T00:48:58;4.03;;;1.08;;
78365;SDS011;67641;59.864;30.464;2024-03-02T00:51:27;2.22;;;1.05;;
78365;SDS011;67641;59.864;30.464;2024-03-02T00:53:58;3.03;;;0.90;;
78365;SDS011;67641;59.864;30.464;2024-03-02T00:56:26;2.95;;;1.00;;
78365;SDS011;67641;59.864;30.464;2024-03-02T00:58:52;3.22;;;1.10;;
78365;SDS011;67641;59.864;30.464;2024-03-02T01:01:19;3.25;;;1.33;;
78365;SDS011;67641;59.864;30.464;2024-03-02T01:03:46;4.47;;;1.40;;
78365;SDS011;67641;59.864;30.464;2024-03-02T01:06:13;3.72;;;1.13;;
78365;SDS011;67641;59.864;30.464;2024-03-02T01:08:40;2.10;;;0.93;;
78365;SDS011;67641;59.864;30.464;2024-03-02T01:11:06;3.50;;;1.20;;
78365;SDS011;67641;59.864;30.464;2024-03-02T01:13:33;2.28;;;1.02;;
78365;SDS011;67641;59.864;30.464;2024-03-02T01:16:00;4.43;;;1.05;;
78365;SDS011;67641;59.864;30.464;2024-03-02T01:18:27;5.18;;;1.02;;
78365;SDS011;67641;59.864;30.464;2024-03-02T01:20:54;4.65;;;1.02;;
78365;SDS011;67641;59.864;30.464;2024-03-02T01:23:23;3.88;;;1.38;;
78365;SDS011;67641;59.864;30.464;2024-03-02T01:25:51;3.97;;;1.42;;
78365;SDS011;67641;59.864;30.464;2024-03-02T01:28:18;3.67;;;1.00;;
78365;SDS011;67641;59.864;30.464;2024-03-02T01:30:46;4.03;;;1.25;;
78365;SDS011;67641;59.864;30.464;2024-03-02T01:33:13;2.28;;;1.00;;
78365;SDS011;67641;59.864;30.464;2024-03-02T01:35:40;4.38;;;1.17;;
78365;SDS011;67641;59.864;30.464;2024-03-02T01:38:06;5.45;;;1.23;;
78365;SDS011;67641;59.864;30.464;2024-03-02T01:40:36;2.60;;;1.27;;
78365;SDS011;67641;59.864;30.464;2024-03-02T01:43:04;3.40;;;0.90;;
78365;SDS011;67641;59.864;30.464;2024-03-02T01:45:34;4.00;;;0.90;;
78365;SDS011;67641;59.864;30.464;2024-03-02T01:48:01;4.30;;;1.15;;
78365;SDS011;67641;59.864;30.464;2024-03-02T01:50:29;3.97;;;1.33;;
78365;SDS011;67641;59.864;30.464;2024-03-02T01:52:58;3.15;;;0.93;;
78365;SDS011;67641;59.864;30.464;2024-03-02T01:55:26;5.43;;;1.20;;
78365;SDS011;67641;59.864;30.464;2024-03-02T01:57:53;3.65;;;1.20;;
78365;SDS011;67641;59.864;30.464;2024-03-02T02:00:20;3.50;;;1.08;;
78365;SDS011;67641;59.864;30.464;2024-03-02T02:02:48;2.88;;;1.30;;
78365;SDS011;67641;59.864;30.464;2024-03-02T02:05:15;3.78;;;0.80;;
78365;SDS011;67641;59.864;30.464;2024-03-02T02:07:42;4.30;;;1.40;;
78365;SDS011;67641;59.864;30.464;2024-03-02T02:10:12;2.47;;;0.90;;
78365;SDS011;67641;59.864;30.464;2024-03-02T02:12:39;4.78;;;1.10;;
78365;SDS011;67641;59.864;30.464;2024-03-02T02:15:39;3.25;;;1.20;;
78365;SDS011;67641;59.864;30.464;2024-03-02T02:18:00;8.38;;;1.20;;
78365;SDS011;67641;59.864;30.464;2024-03-02T02:20:28;3.67;;;1.40;;
78365;SDS011;67641;59.864;30.464;2024-03-02T02:23:01;5.40;;;1.42;;
78365;SDS011;67641;59.864;30.464;2024-03-02T02:25:29;6.25;;;1.23;;
78365;SDS011;67641;59.864;30.464;2024-03-02T02:27:56;5.93;;;1.50;;
78365;SDS011;67641;59.864;30.464;2024-03-02T02:30:27;4.18;;;1.10;;
78365;SDS011;67641;59.864;30.464;2024-03-02T02:32:55;2.70;;;0.80;;
78365;SDS011;67641;59.864;30.464;2024-03-02T02:35:22;3.80;;;1.00;;
78365;SDS011;67641;59.864;30.464;2024-03-02T02:37:52;5.53;;;1.25;;
78365;SDS011;67641;59.864;30.464;2024-03-02T02:40:20;2.85;;;1.00;;
78365;SDS011;67641;59.864;30.464;2024-03-02T02:42:47;3.38;;;1.00;;
78365;SDS011;67641;59.864;30.464;2024-03-02T02:45:14;2.25;;;1.00;;
78365;SDS011;67641;59.864;30.464;2024-03-02T02:47:41;6.28;;;1.20;;
78365;SDS011;67641;59.864;30.464;2024-03-02T02:50:08;3.35;;;0.95;;
78365;SDS011;67641;59.864;30.464;2024-03-02T02:52:35;3.40;;;1.00;;
78365;SDS011;67641;59.864;30.464;2024-03-02T02:55:04;2.47;;;1.30;;
78365;SDS011;67641;59.864;30.464;2024-03-02T02:57:31;3.00;;;0.80;;
78365;SDS011;67641;59.864;30.464;2024-03-02T03:00:02;5.10;;;1.20;;
78365;SDS011;67641;59.864;30.464;2024-03-02T03:02:31;3.35;;;1.10;;
78365;SDS011;67641;59.864;30.464;2024-03-02T03:04:58;4.35;;;1.30;;
78365;SDS011;67641;59.864;30.464;2024-03-02T03:07:25;2.47;;;0.95;;
78365;SDS011;67641;59.864;30.464;2024-03-02T03:09:51;2.90;;;0.85;;
78365;SDS011;67641;59.864;30.464;2024-03-02T03:12:18;2.85;;;0.93;;
78365;SDS011;67641;59.864;30.464;2024-03-02T03:14:44;4.47;;;1.02;;
78365;SDS011;67641;59.864;30.464;2024-03-02T03:17:11;2.28;;;0.90;;
78365;SDS011;67641;59.864;30.464;2024-03-02T03:19:38;3.08;;;0.95;;
78365;SDS011;67641;59.864;30.464;2024-03-02T03:22:04;3.90;;;1.13;;
78365;SDS011;67641;59.864;30.464;2024-03-02T03:24:31;3.53;;;1.15;;
78365;SDS011;67641;59.864;30.464;2024-03-02T03:26:59;4.40;;;1.05;;
78365;SDS011;67641;59.864;30.464;2024-03-02T03:29:25;3.28;;;1.25;;
78365;SDS011;67641;59.864;30.464;2024-03-02T03:31:52;2.53;;;1.20;;
78365;SDS011;67641;59.864;30.464;2024-03-02T03:34:18;4.57;;;1.20;;
78365;SDS011;67641;59.864;30.464;2024-03-02T03:36:45;5.00;;;1.17;;
78365;SDS011;67641;59.864;30.464;2024-03-02T03:39:11;2.67;;;0.95;;
78365;SDS011;67641;59.864;30.464;2024-03-02T03:41:38;5.38;;;1.52;;
78365;SDS011;67641;59.864;30.464;2024-03-02T03:44:06;2.88;;;0.95;;
78365;SDS011;67641;59.864;30.464;2024-03-02T03:46:33;3.05;;;1.15;;
78365;SDS011;67641;59.864;30.464;2024-03-02T03:48:59;3.38;;;1.10;;
78365;SDS011;67641;59.864;30.464;2024-03-02T03:51:26;4.65;;;1.20;;
78365;SDS011;67641;59.864;30.464;2024-03-02T03:53:52;3.40;;;1.17;;
78365;SDS011;67641;59.864;30.464;2024-03-02T03:56:19;3.00;;;1.00;;
78365;SDS011;67641;59.864;30.464;2024-03-02T03:58:45;2.70;;;1.08;;
78365;SDS011;67641;59.864;30.464;2024-03-02T04:01:12;2.53;;;1.17;;
78365;SDS011;67641;59.864;30.464;2024-03-02T04:03:38;5.88;;;1.27;;
78365;SDS011;67641;59.864;30.464;2024-03-02T04:06:05;3.40;;;1.20;;
78365;SDS011;67641;59.864;30.464;2024-03-02T04:08:31;4.65;;;1.40;;
78365;SDS011;67641;59.864;30.464;2024-03-02T04:10:58;5.05;;;1.30;;
78365;SDS011;67641;59.864;30.464;2024-03-02T04:13:24;4.22;;;1.15;;
78365;SDS011;67641;59.864;30.464;2024-03-02T04:15:51;2.92;;;1.20;;
78365;SDS011;67641;59.864;30.464;2024-03-02T04:18:18;3.50;;;1.25;;
78365;SDS011;67641;59.864;30.464;2024-03-02T04:20:44;3.47;;;1.40;;
78365;SDS011;67641;59.864;30.464;2024-03-02T04:23:10;2.90;;;1.17;;
78365;SDS011;67641;59.864;30.464;2024-03-02T04:25:37;2.70;;;1.27;;
78365;SDS011;67641;59.864;30.464;2024-03-02T04:28:04;3.17;;;1.20;;
78365;SDS011;67641;59.864;30.464;2024-03-02T04:30:31;4.13;;;1.30;;
78365;SDS011;67641;59.864;30.464;2024-03-02T04:32:58;2.92;;;1.20;;
78365;SDS011;67641;59.864;30.464;2024-03-02T04:35:25;4.38;;;1.20;;
78365;SDS011;67641;59.864;30.464;2024-03-02T04:37:52;5.80;;;1.50;;
78365;SDS011;67641;59.864;30.464;2024-03-02T04:40:19;4.13;;;1.48;;
78365;SDS011;67641;59.864;30.464;2024-03-02T04:42:45;3.17;;;1.00;;
78365;SDS011;67641;59.864;30.464;2024-03-02T04:45:12;4.93;;;1.45;;
78365;SDS011;67641;59.864;30.464;2024-03-02T04:47:38;2.95;;;1.40;;
78365;SDS011;67641;59.864;30.464;2024-03-02T04:50:05;10.13;;;1.23;;
78365;SDS011;67641;59.864;30.464;2024-03-02T04:52:33;4.50;;;1.33;;
78365;SDS011;67641;59.864;30.464;2024-03-02T04:55:00;6.22;;;1.50;;
78365;SDS011;67641;59.864;30.464;2024-03-02T04:57:43;4.50;;;1.30;;
78365;SDS011;67641;59.864;30.464;2024-03-02T05:00:10;5.38;;;1.67;;
78365;SDS011;67641;59.864;30.464;2024-03-02T05:02:36;4.85;;;1.40;;
78365;SDS011;67641;59.864;30.464;2024-03-02T05:05:03;8.73;;;1.30;;
78365;SDS011;67641;59.864;30.464;2024-03-02T05:07:31;6.72;;;1.45;;
78365;SDS011;67641;59.864;30.464;2024-03-02T05:09:57;5.30;;;1.52;;
78365;SDS011;67641;59.864;30.464;2024-03-02T05:12:24;3.40;;;1.50;;
78365;SDS011;67641;59.864;30.464;2024-03-02T05:15:09;5.90;;;1.17;;
78365;SDS011;67641;59.864;30.464;2024-03-02T05:17:37;3.25;;;1.38;;
78365;SDS011;67641;59.864;30.464;2024-03-02T05:20:04;5.38;;;1.50;;
78365;SDS011;67641;59.864;30.464;2024-03-02T05:25:00;2.80;;;1.52;;
78365;SDS011;67641;59.864;30.464;2024-03-02T05:27:27;5.88;;;1.60;;
78365;SDS011;67641;59.864;30.464;2024-03-02T05:29:54;4.22;;;1.40;;
78365;SDS011;67641;59.864;30.464;2024-03-02T05:32:21;5.18;;;1.50;;
78365;SDS011;67641;59.864;30.464;2024-03-02T05:34:47;4.93;;;1.42;;
78365;SDS011;67641;59.864;30.464;2024-03-02T05:37:14;3.22;;;1.42;;
78365;SDS011;67641;59.864;30.464;2024-03-02T05:39:41;5.47;;;1.45;;
78365;SDS011;67641;59.864;30.464;2024-03-02T05:42:09;5.88;;;1.25;;
78365;SDS011;67641;59.864;30.464;2024-03-02T05:44:36;2.88;;;1.20;;
78365;SDS011;67641;59.864;30.464;2024-03-02T05:47:03;5.07;;;1.55;;
78365;SDS011;67641;59.864;30.464;2024-03-02T05:49:30;6.38;;;1.60;;
78365;SDS011;67641;59.864;30.464;2024-03-02T05:51:56;5.13;;;1.58;;
78365;SDS011;67641;59.864;30.464;2024-03-02T05:54:23;3.97;;;1.30;;
78365;SDS011;67641;59.864;30.464;2024-03-02T05:56:49;4.78;;;1.60;;
78365;SDS011;67641;59.864;30.464;2024-03-02T05:59:16;7.47;;;1.77;;
78365;SDS011;67641;59.864;30.464;2024-03-02T06:01:43;6.47;;;1.70;;
78365;SDS011;67641;59.864;30.464;2024-03-02T06:04:14;6.25;;;1.50;;
78365;SDS011;67641;59.864;30.464;2024-03-02T06:06:41;6.50;;;1.73;;
78365;SDS011;67641;59.864;30.464;2024-03-02T06:09:08;6.28;;;1.70;;
78365;SDS011;67641;59.864;30.464;2024-03-02T06:11:38;5.95;;;1.40;;
78365;SDS011;67641;59.864;30.464;2024-03-02T06:14:07;10.73;;;3.30;;
78365;SDS011;67641;59.864;30.464;2024-03-02T06:16:34;14.68;;;5.95;;
78365;SDS011;67641;59.864;30.464;2024-03-02T06:19:01;9.15;;;1.75;;
78365;SDS011;67641;59.864;30.464;2024-03-02T06:21:28;5.47;;;1.80;;
78365;SDS011;67641;59.864;30.464;2024-03-02T06:23:55;6.07;;;1.63;;
78365;SDS011;67641;59.864;30.464;2024-03-02T06:26:22;9.27;;;2.40;;
78365;SDS011;67641;59.864;30.464;2024-03-02T06:28:49;12.55;;;2.15;;
78365;SDS011;67641;59.864;30.464;2024-03-02T06:31:15;11.15;;;2.55;;
78365;SDS011;67641;59.864;30.464;2024-03-02T06:36:10;7.90;;;1.83;;
78365;SDS011;67641;59.864;30.464;2024-03-02T06:38:38;7.32;;;1.80;;
78365;SDS011;67641;59.864;30.464;2024-03-02T06:41:08;3.45;;;1.23;;
78365;SDS011;67641;59.864;30.464;2024-03-02T06:43:35;12.70;;;4.57;;
78365;SDS011;67641;59.864;30.464;2024-03-02T06:46:01;4.38;;;1.50;;
78365;SDS011;67641;59.864;30.464;2024-03-02T06:48:28;8.95;;;1.60;;
78365;SDS011;67641;59.864;30.464;2024-03-02T06:50:55;4.97;;;1.20;;
78365;SDS011;67641;59.864;30.464;2024-03-02T06:53:23;5.30;;;1.33;;
78365;SDS011;67641;59.864;30.464;2024-03-02T06:55:49;5.72;;;1.42;;
78365;SDS011;67641;59.864;30.464;2024-03-02T06:58:16;6.43;;;1.38;;
78365;SDS011;67641;59.864;30.464;2024-03-02T07:00:43;4.88;;;1.50;;
78365;SDS011;67641;59.864;30.464;2024-03-02T07:03:13;4.30;;;1.25;;
78365;SDS011;67641;59.864;30.464;2024-03-02T07:05:40;6.93;;;1.58;;
78365;SDS011;67641;59.864;30.464;2024-03-02T07:08:06;4.28;;;1.70;;
78365;SDS011;67641;59.864;30.464;2024-03-02T07:10:33;4.88;;;1.50;;
78365;SDS011;67641;59.864;30.464;2024-03-02T07:13:00;5.63;;;1.40;;
78365;SDS011;67641;59.864;30.464;2024-03-02T07:15:27;4.68;;;1.10;;
78365;SDS011;67641;59.864;30.464;2024-03-02T07:17:53;8.55;;;1.90;;
78365;SDS011;67641;59.864;30.464;2024-03-02T07:20:20;7.05;;;2.10;;
78365;SDS011;67641;59.864;30.464;2024-03-02T07:22:47;6.35;;;1.60;;
78365;SDS011;67641;59.864;30.464;2024-03-02T07:25:13;5.90;;;1.35;;
78365;SDS011;67641;59.864;30.464;2024-03-02T07:27:40;7.28;;;1.90;;
78365;SDS011;67641;59.864;30.464;2024-03-02T07:30:07;6.47;;;1.40;;
78365;SDS011;67641;59.864;30.464;2024-03-02T07:32:34;5.25;;;1.48;;
78365;SDS011;67641;59.864;30.464;2024-03-02T07:35:00;4.88;;;1.25;;
78365;SDS011;67641;59.864;30.464;2024-03-02T07:37:27;7.78;;;1.90;;
78365;SDS011;67641;59.864;30.464;2024-03-02T07:39:54;7.10;;;1.40;;
78365;SDS011;67641;59.864;30.464;2024-03-02T07:42:21;4.47;;;1.42;;
78365;SDS011;67641;59.864;30.464;2024-03-02T07:44:48;6.13;;;1.42;;
78365;SDS011;67641;59.864;30.464;2024-03-02T07:47:14;7.75;;;1.48;;
78365;SDS011;67641;59.864;30.464;2024-03-02T07:49:41;10.23;;;1.80;;
78365;SDS011;67641;59.864;30.464;2024-03-02T07:52:08;13.55;;;6.78;;
78365;SDS011;67641;59.864;30.464;2024-03-02T07:54:34;10.85;;;3.75;;
78365;SDS011;67641;59.864;30.464;2024-03-02T07:57:02;8.85;;;2.25;;
78365;SDS011;67641;59.864;30.464;2024-03-02T07:59:28;6.70;;;1.73;;
78365;SDS011;67641;59.864;30.464;2024-03-02T08:01:55;7.20;;;2.00;;
78365;SDS011;67641;59.864;30.464;2024-03-02T08:04:22;4.55;;;1.67;;
78365;SDS011;67641;59.864;30.464;2024-03-02T08:06:49;5.40;;;1.80;;
78365;SDS011;67641;59.864;30.464;2024-03-02T08:09:15;11.85;;;1.88;;
78365;SDS011;67641;59.864;30.464;2024-03-02T08:11:42;5.03;;;1.90;;
78365;SDS011;67641;59.864;30.464;2024-03-02T08:14:09;6.68;;;1.60;;
78365;SDS011;67641;59.864;30.464;2024-03-02T08:16:35;9.13;;;1.73;;
78365;SDS011;67641;59.864;30.464;2024-03-02T08:19:02;10.98;;;1.83;;
78365;SDS011;67641;59.864;30.464;2024-03-02T08:21:29;5.10;;;1.60;;
78365;SDS011;67641;59.864;30.464;2024-03-02T08:24:01;5.38;;;1.50;;
78365;SDS011;67641;59.864;30.464;2024-03-02T08:26:28;8.60;;;1.70;;
78365;SDS011;67641;59.864;30.464;2024-03-02T08:29:00;7.82;;;1.83;;
78365;SDS011;67641;59.864;30.464;2024-03-02T08:31:30;8.00;;;1.80;;
78365;SDS011;67641;59.864;30.464;2024-03-02T08:33:57;11.18;;;2.00;;
78365;SDS011;67641;59.864;30.464;2024-03-02T08:36:24;10.20;;;1.95;;
78365;SDS011;67641;59.864;30.464;2024-03-02T08:38:51;9.73;;;1.88;;
78365;SDS011;67641;59.864;30.464;2024-03-02T08:41:18;12.02;;;1.67;;
78365;SDS011;67641;59.864;30.464;2024-03-02T08:43:44;7.80;;;1.63;;
78365;SDS011;67641;59.864;30.464;2024-03-02T08:46:11;4.78;;;1.67;;
78365;SDS011;67641;59.864;30.464;2024-03-02T08:48:38;5.35;;;1.70;;
78365;SDS011;67641;59.864;30.464;2024-03-02T08:51:05;9.85;;;1.65;;
78365;SDS011;67641;59.864;30.464;2024-03-02T08:53:33;6.55;;;1.60;;
78365;SDS011;67641;59.864;30.464;2024-03-02T08:56:00;5.30;;;1.75;;
78365;SDS011;67641;59.864;30.464;2024-03-02T08:58:27;5.30;;;1.73;;
78365;SDS011;67641;59.864;30.464;2024-03-02T09:00:54;7.18;;;1.90;;
78365;SDS011;67641;59.864;30.464;2024-03-02T09:03:20;7.38;;;2.03;;
78365;SDS011;67641;59.864;30.464;2024-03-02T09:05:47;8.48;;;2.05;;
78365;SDS011;67641;59.864;30.464;2024-03-02T09:08:14;7.65;;;2.10;;
78365;SDS011;67641;59.864;30.464;2024-03-02T09:10:40;5.55;;;1.83;;
78365;SDS011;67641;59.864;30.464;2024-03-02T09:13:07;4.68;;;1.73;;
78365;SDS011;67641;59.864;30.464;2024-03-02T09:15:34;7.18;;;1.80;;
78365;SDS011;67641;59.864;30.464;2024-03-02T09:18:03;7.95;;;2.00;;
78365;SDS011;67641;59.864;30.464;2024-03-02T09:20:30;8.57;;;1.60;;
78365;SDS011;67641;59.864;30.464;2024-03-02T09:22:57;6.13;;;1.98;;
78365;SDS011;67641;59.864;30.464;2024-03-02T09:25:23;9.70;;;2.58;;
78365;SDS011;67641;59.864;30.464;2024-03-02T09:27:51;9.20;;;2.25;;
78365;SDS011;67641;59.864;30.464;2024-03-02T09:30:17;8.50;;;2.00;;
78365;SDS011;67641;59.864;30.464;2024-03-02T09:32:44;10.57;;;2.38;;
78365;SDS011;67641;59.864;30.464;2024-03-02T09:35:11;6.70;;;1.80;;
78365;SDS011;67641;59.864;30.464;2024-03-02T09:37:38;5.43;;;1.95;;
78365;SDS011;67641;59.864;30.464;2024-03-02T09:40:05;6.90;;;1.83;;
78365;SDS011;67641;59.864;30.464;2024-03-02T09:42:32;8.73;;;2.17;;
78365;SDS011;67641;59.864;30.464;2024-03-02T09:44:59;8.43;;;1.85;;
78365;SDS011;67641;59.864;30.464;2024-03-02T09:47:25;7.45;;;2.20;;
78365;SDS011;67641;59.864;30.464;2024-03-02T09:49:52;10.95;;;2.97;;
78365;SDS011;67641;59.864;30.464;2024-03-02T09:52:20;8.27;;;2.05;;
78365;SDS011;67641;59.864;30.464;2024-03-02T09:54:47;12.95;;;2.72;;
78365;SDS011;67641;59.864;30.464;2024-03-02T09:57:15;6.88;;;2.30;;
78365;SDS011;67641;59.864;30.464;2024-03-02T09:59:42;10.38;;;2.50;;
78365;SDS011;67641;59.864;30.464;2024-03-02T10:02:09;11.38;;;2.33;;
78365;SDS011;67641;59.864;30.464;2024-03-02T10:04:36;6.32;;;1.98;;
78365;SDS011;67641;59.864;30.464;2024-03-02T10:07:10;10.85;;;2.03;;
78365;SDS011;67641;59.864;30.464;2024-03-02T10:09:47;10.60;;;2.22;;
78365;SDS011;67641;59.864;30.464;2024-03-02T10:12:15;9.75;;;1.65;;
78365;SDS011;67641;59.864;30.464;2024-03-02T10:14:45;6.22;;;1.40;;
78365;SDS011;67641;59.864;30.464;2024-03-02T10:17:16;11.65;;;2.00;;
78365;SDS011;67641;59.864;30.464;2024-03-02T10:22:11;14.77;;;2.15;;
78365;SDS011;67641;59.864;30.464;2024-03-02T10:24:41;6.68;;;1.85;;
78365;SDS011;67641;59.864;30.464;2024-03-02T10:27:16;8.45;;;1.85;;
78365;SDS011;67641;59.864;30.464;2024-03-02T10:29:47;6.78;;;1.75;;
78365;SDS011;67641;59.864;30.464;2024-03-02T10:32:14;12.30;;;1.92;;
78365;SDS011;67641;59.864;30.464;2024-03-02T10:34:42;10.32;;;2.00;;
78365;SDS011;67641;59.864;30.464;2024-03-02T10:39:38;11.45;;;2.22;;
78365;SDS011;67641;59.864;30.464;2024-03-02T10:42:06;8.88;;;2.45;;
78365;SDS011;67641;59.864;30.464;2024-03-02T10:44:33;11.88;;;2.15;;
78365;SDS011;67641;59.864;30.464;2024-03-02T10:47:01;6.60;;;1.50;;
78365;SDS011;67641;59.864;30.464;2024-03-02T10:49:30;9.30;;;1.92;;
78365;SDS011;67641;59.864;30.464;2024-03-02T10:51:58;10.70;;;2.03;;
78365;SDS011;67641;59.864;30.464;2024-03-02T10:54:25;6.78;;;1.60;;
78365;SDS011;67641;59.864;30.464;2024-03-02T10:56:53;10.25;;;2.03;;
78365;SDS011;67641;59.864;30.464;2024-03-02T10:59:27;11.63;;;2.22;;
78365;SDS011;67641;59.864;30.464;2024-03-02T11:01:58;8.55;;;2.05;;
78365;SDS011;67641;59.864;30.464;2024-03-02T11:04:27;13.07;;;2.22;;
78365;SDS011;67641;59.864;30.464;2024-03-02T11:07:05;6.53;;;1.48;;
78365;SDS011;67641;59.864;30.464;2024-03-02T11:09:34;8.98;;;2.08;;
78365;SDS011;67641;59.864;30.464;2024-03-02T11:12:06;6.93;;;1.60;;
78365;SDS011;67641;59.864;30.464;2024-03-02T11:14:42;9.82;;;1.73;;
78365;SDS011;67641;59.864;30.464;2024-03-02T11:17:18;6.43;;;2.00;;
78365;SDS011;67641;59.864;30.464;2024-03-02T11:19:46;9.35;;;2.40;;
78365;SDS011;67641;59.864;30.464;2024-03-02T11:22:13;8.10;;;2.00;;
78365;SDS011;67641;59.864;30.464;2024-03-02T11:24:51;6.72;;;1.90;;
78365;SDS011;67641;59.864;30.464;2024-03-02T11:33:00;8.70;;;1.42;;
78365;SDS011;67641;59.864;30.464;2024-03-02T11:35:37;8.50;;;2.08;;
78365;SDS011;67641;59.864;30.464;2024-03-02T11:38:08;10.63;;;2.15;;
78365;SDS011;67641;59.864;30.464;2024-03-02T11:40:35;8.02;;;1.70;;
78365;SDS011;67641;59.864;30.464;2024-03-02T11:43:02;7.70;;;1.95;;
78365;SDS011;67641;59.864;30.464;2024-03-02T11:45:31;9.73;;;2.10;;
78365;SDS011;67641;59.864;30.464;2024-03-02T11:47:59;8.65;;;2.42;;
78365;SDS011;67641;59.864;30.464;2024-03-02T11:50:29;8.45;;;2.10;;
78365;SDS011;67641;59.864;30.464;2024-03-02T11:52:59;6.65;;;1.90;;
78365;SDS011;67641;59.864;30.464;2024-03-02T11:55:26;12.02;;;2.10;;
78365;SDS011;67641;59.864;30.464;2024-03-02T11:57:55;9.75;;;1.70;;
78365;SDS011;67641;59.864;30.464;2024-03-02T12:00:21;6.07;;;1.85;;
78365;SDS011;67641;59.864;30.464;2024-03-02T12:02:59;10.52;;;1.95;;
78365;SDS011;67641;59.864;30.464;2024-03-02T12:05:33;9.60;;;2.40;;
78365;SDS011;67641;59.864;30.464;2024-03-02T12:08:07;8.93;;;2.38;;
78365;SDS011;67641;59.864;30.464;2024-03-02T12:10:35;13.20;;;2.35;;
78365;SDS011;67641;59.864;30.464;2024-03-02T12:13:03;12.57;;;2.20;;
78365;SDS011;67641;59.864;30.464;2024-03-02T12:15:34;10.82;;;2.53;;
78365;SDS011;67641;59.864;30.464;2024-03-02T12:18:02;8.73;;;2.40;;
78365;SDS011;67641;59.864;30.464;2024-03-02T12:20:30;11.88;;;3.10;;
78365;SDS011;67641;59.864;30.464;2024-03-02T12:22:59;8.00;;;2.05;;
78365;SDS011;67641;59.864;30.464;2024-03-02T12:25:26;8.88;;;2.08;;
78365;SDS011;67641;59.864;30.464;2024-03-02T12:27:54;8.48;;;2.10;;
78365;SDS011;67641;59.864;30.464;2024-03-02T12:30:22;6.43;;;2.22;;
78365;SDS011;67641;59.864;30.464;2024-03-02T12:32:49;11.80;;;2.33;;
78365;SDS011;67641;59.864;30.464;2024-03-02T12:35:17;12.50;;;2.60;;
78365;SDS011;67641;59.864;30.464;2024-03-02T12:37:44;12.65;;;2.58;;
78365;SDS011;67641;59.864;30.464;2024-03-02T12:40:12;10.93;;;2.17;;
78365;SDS011;67641;59.864;30.464;2024-03-02T12:42:40;14.73;;;2.22;;
78365;SDS011;67641;59.864;30.464;2024-03-02T12:45:10;11.93;;;2.40;;
78365;SDS011;67641;59.864;30.464;2024-03-02T12:47:37;13.13;;;2.50;;
78365;SDS011;67641;59.864;30.464;2024-03-02T12:50:05;7.53;;;2.50;;
78365;SDS011;67641;59.864;30.464;2024-03-02T12:52:32;10.40;;;2.20;;
78365;SDS011;67641;59.864;30.464;2024-03-02T12:55:05;9.98;;;2.45;;
78365;SDS011;67641;59.864;30.464;2024-03-02T12:57:32;7.05;;;2.08;;
78365;SDS011;67641;59.864;30.464;2024-03-02T13:00:09;11.27;;;2.10;;
78365;SDS011;67641;59.864;30.464;2024-03-02T13:02:36;12.00;;;2.42;;
78365;SDS011;67641;59.864;30.464;2024-03-02T13:05:06;9.20;;;2.10;;
78365;SDS011;67641;59.864;30.464;2024-03-02T13:07:37;8.07;;;2.13;;
78365;SDS011;67641;59.864;30.464;2024-03-02T13:10:04;8.75;;;2.10;;
78365;SDS011;67641;59.864;30.464;2024-03-02T13:12:35;9.57;;;1.95;;
78365;SDS011;67641;59.864;30.464;2024-03-02T13:15:03;7.22;;;2.42;;
78365;SDS011;67641;59.864;30.464;2024-03-02T13:17:31;13.18;;;2.70;;
78365;SDS011;67641;59.864;30.464;2024-03-02T13:20:00;8.80;;;2.03;;
78365;SDS011;67641;59.864;30.464;2024-03-02T13:22:30;9.15;;;2.20;;
78365;SDS011;67641;59.864;30.464;2024-03-02T13:24:57;12.07;;;2.38;;
78365;SDS011;67641;59.864;30.464;2024-03-02T13:27:25;12.48;;;2.30;;
78365;SDS011;67641;59.864;30.464;2024-03-02T13:29:52;12.70;;;2.50;;
78365;SDS011;67641;59.864;30.464;2024-03-02T13:32:20;13.02;;;2.85;;
78365;SDS011;67641;59.864;30.464;2024-03-02T13:34:49;13.13;;;2.67;;
78365;SDS011;67641;59.864;30.464;2024-03-02T13:37:16;13.30;;;2.70;;
78365;SDS011;67641;59.864;30.464;2024-03-02T13:39:42;8.50;;;2.40;;
78365;SDS011;67641;59.864;30.464;2024-03-02T13:42:10;8.25;;;2.08;;
78365;SDS011;67641;59.864;30.464;2024-03-02T13:44:38;10.02;;;2.38;;
78365;SDS011;67641;59.864;30.464;2024-03-02T13:47:04;11.52;;;2.22;;
78365;SDS011;67641;59.864;30.464;2024-03-02T13:49:31;13.23;;;2.45;;
78365;SDS011;67641;59.864;30.464;2024-03-02T13:52:05;6.72;;;2.10;;
78365;SDS011;67641;59.864;30.464;2024-03-02T13:54:43;8.98;;;2.30;;
78365;SDS011;67641;59.864;30.464;2024-03-02T13:57:11;8.65;;;2.22;;
78365;SDS011;67641;59.864;30.464;2024-03-02T13:59:38;10.68;;;2.53;;
78365;SDS011;67641;59.864;30.464;2024-03-02T14:02:06;8.65;;;2.50;;
78365;SDS011;67641;59.864;30.464;2024-03-02T14:04:34;12.68;;;2.10;;
78365;SDS011;67641;59.864;30.464;2024-03-02T14:07:01;12.88;;;2.20;;
78365;SDS011;67641;59.864;30.464;2024-03-02T14:09:28;10.05;;;2.05;;
78365;SDS011;67641;59.864;30.464;2024-03-02T14:11:55;12.68;;;2.53;;
78365;SDS011;67641;59.864;30.464;2024-03-02T14:14:22;5.45;;;2.10;;
78365;SDS011;67641;59.864;30.464;2024-03-02T14:16:49;5.28;;;1.77;;
78365;SDS011;67641;59.864;30.464;2024-03-02T14:19:16;10.70;;;2.10;;
78365;SDS011;67641;59.864;30.464;2024-03-02T14:21:42;11.25;;;2.85;;
78365;SDS011;67641;59.864;30.464;2024-03-02T14:24:09;9.15;;;2.22;;
78365;SDS011;67641;59.864;30.464;2024-03-02T14:26:36;7.13;;;2.05;;
78365;SDS011;67641;59.864;30.464;2024-03-02T14:29:03;8.68;;;2.03;;
78365;SDS011;67641;59.864;30.464;2024-03-02T14:31:31;11.20;;;2.55;;
78365;SDS011;67641;59.864;30.464;2024-03-02T14:33:58;11.63;;;2.42;;
78365;SDS011;67641;59.864;30.464;2024-03-02T14:36:27;12.10;;;2.70;;
78365;SDS011;67641;59.864;30.464;2024-03-02T14:38:54;9.45;;;2.03;;
78365;SDS011;67641;59.864;30.464;2024-03-02T14:41:21;8.80;;;2.00;;
78365;SDS011;67641;59.864;30.464;2024-03-02T14:43:50;8.77;;;2.50;;
78365;SDS011;67641;59.864;30.464;2024-03-02T14:46:17;11.70;;;2.53;;
78365;SDS011;67641;59.864;30.464;2024-03-02T14:48:45;11.55;;;2.63;;
78365;SDS011;67641;59.864;30.464;2024-03-02T14:51:12;10.93;;;2.42;;
78365;SDS011;67641;59.864;30.464;2024-03-02T14:53:39;9.85;;;2.30;;
78365;SDS011;67641;59.864;30.464;2024-03-02T14:56:06;7.97;;;1.90;;
78365;SDS011;67641;59.864;30.464;2024-03-02T14:58:33;11.18;;;2.20;;
78365;SDS011;67641;59.864;30.464;2024-03-02T15:01:01;12.82;;;2.58;;
78365;SDS011;67641;59.864;30.464;2024-03-02T15:03:29;14.68;;;3.35;;